Time;durP1;ratioP1;P1;durP2;ratioP2;P2;SDS_P1;SDS_P2;PMS_P1;PMS_P2;Temp;Humidity;BMP_temperature;BMP_pressure;BME280_temperature;BME280_humidity;BME280_pressure;Samples;Min_cycle;Max_cycle;Signal;HPM_P1;HPM_P2
2023/03/25 00:01:13;;;;;;;2.13;1.30;;;;;;;13.62;52.72;98335.75;5125691;28;20092;-74
2023/03/25 00:03:41;;;;;;;2.10;1.35;;;;;;;13.58;53.19;98338.78;5126431;28;20265;-75
2023/03/25 00:06:11;;;;;;;3.38;1.58;;;;;;;13.23;53.19;98262.69;5126125;28;20047;-75
2023/03/25 00:08:37;;;;;;;1.92;1.38;;;;;;;13.44;52.76;98294.69;5126173;28;20040;-75
2023/03/25 00:11:07;;;;;;;1.95;1.38;;;;;;;13.58;52.77;98320.16;5125278;28;20039;-74
2023/03/25 00:13:34;;;;;;;3.15;1.30;;;;;;;13.56;52.98;98314.13;5125261;28;20044;-75
2023/03/25 00:16:03;;;;;;;2.33;1.58;;;;;;;13.32;52.47;98283.22;5108321;28;20114;-75
2023/03/25 00:18:32;;;;;;;1.45;1.10;;;;;;;13.50;52.67;98310.16;5125991;28;20043;-75
2023/03/25 00:21:01;;;;;;;4.28;1.60;;;;;;;13.33;52.54;98292.91;5125351;28;20051;-74
2023/03/25 00:23:29;;;;;;;4.75;1.58;;;;;;;12.80;52.53;98204.25;5109295;28;20063;-75
2023/03/25 00:25:59;;;;;;;1.77;1.20;;;;;;;13.50;52.51;98341.25;5125386;28;20042;-74
2023/03/25 00:28:29;;;;;;;1.92;1.20;;;;;;;13.48;52.59;98354.69;5125863;28;20047;-74
2023/03/25 00:31:00;;;;;;;1.85;1.27;;;;;;;13.34;52.50;98334.50;5125984;28;20036;-74
2023/03/25 00:33:29;;;;;;;2.22;1.30;;;;;;;13.44;52.36;98356.75;5124797;28;20101;-75
2023/03/25 00:35:58;;;;;;;1.88;1.30;;;;;;;13.18;52.41;98303.97;5125386;28;20040;-74
2023/03/25 00:38:32;;;;;;;2.35;1.55;;;;;;;12.57;52.51;98235.34;5126236;28;20040;-74
2023/03/25 00:41:03;;;;;;;2.08;1.42;;;;;;;13.44;52.39;98364.75;5125924;28;20341;-74
2023/03/25 00:43:30;;;;;;;2.63;1.40;;;;;;;13.40;52.59;98357.09;5126052;28;20039;-74
2023/03/25 00:45:57;;;;;;;1.95;1.20;;;;;;;13.42;52.62;98334.75;5126142;28;20035;-74
2023/03/25 00:48:26;;;;;;;1.65;1.15;;;;;;;13.40;52.43;98349.13;5125260;28;20036;-75
2023/03/25 00:50:54;;;;;;;2.70;1.40;;;;;;;13.38;51.99;98351.06;5126004;28;20044;-74
2023/03/25 00:53:21;;;;;;;2.15;1.30;;;;;;;13.36;52.14;98361.00;5125963;28;20076;-74
2023/03/25 00:55:48;;;;;;;3.67;1.48;;;;;;;12.66;51.96;98261.19;5127508;28;20043;-74
2023/03/25 00:58:15;;;;;;;3.05;1.50;;;;;;;13.31;51.65;98356.03;5129390;28;20053;-75
2023/03/25 01:00:41;;;;;;;3.75;1.50;;;;;;;12.80;51.75;98265.38;5129476;28;20042;-75
2023/03/25 01:03:08;;;;;;;2.03;1.25;;;;;;;13.15;51.80;98329.00;5128555;28;20291;-75
2023/03/25 01:05:35;;;;;;;1.73;1.20;;;;;;;13.26;51.31;98338.75;5128709;28;20191;-75
2023/03/25 01:08:04;;;;;;;2.10;1.58;;;;;;;13.22;51.00;98340.00;5128383;28;20210;-75
2023/03/25 01:10:30;;;;;;;3.15;1.30;;;;;;;13.24;51.06;98332.72;5129479;28;20111;-74
2023/03/25 01:12:57;;;;;;;3.03;1.60;;;;;;;13.23;51.27;98334.53;5129233;28;20081;-74
2023/03/25 01:15:24;;;;;;;2.20;1.25;;;;;;;13.24;51.28;98335.38;5128900;28;20043;-74
2023/03/25 01:17:51;;;;;;;2.00;1.30;;;;;;;13.22;50.95;98330.19;5129347;28;20045;-74
2023/03/25 01:20:17;;;;;;;1.98;1.25;;;;;;;13.22;51.34;98347.97;5128289;28;20181;-74
2023/03/25 01:22:44;;;;;;;2.42;1.27;;;;;;;13.17;51.18;98358.97;5129137;28;20226;-75
2023/03/25 01:25:12;;;;;;;1.92;1.35;;;;;;;13.16;51.29;98334.19;5128827;28;20044;-75
2023/03/25 01:27:39;;;;;;;3.55;1.75;;;;;;;13.15;51.17;98367.09;5129150;28;20105;-75
2023/03/25 01:30:08;;;;;;;1.52;1.17;;;;;;;13.15;51.16;98345.81;5127983;28;20084;-75
2023/03/25 01:32:34;;;;;;;3.10;1.40;;;;;;;13.15;51.54;98334.31;5128762;28;20061;-75
2023/03/25 01:35:03;;;;;;;1.80;1.30;;;;;;;13.16;51.38;98347.50;5127672;28;20052;-75
2023/03/25 01:37:32;;;;;;;2.00;1.33;;;;;;;13.18;51.53;98336.72;5128951;28;20041;-75
2023/03/25 01:40:00;;;;;;;1.63;1.20;;;;;;;12.68;51.40;98277.88;5127841;28;20054;-75
2023/03/25 01:42:28;;;;;;;1.92;1.30;;;;;;;13.15;51.53;98351.13;5128581;28;20035;-74
2023/03/25 01:45:15;;;;;;;2.72;1.60;;;;;;;13.16;51.19;98352.81;5128803;28;20046;-75
2023/03/25 01:47:43;;;;;;;2.42;1.50;;;;;;;12.93;51.48;98316.59;5128836;28;20043;-75
2023/03/25 01:50:13;;;;;;;4.38;1.50;;;;;;;12.46;51.43;98238.03;5127867;28;20073;-75
2023/03/25 01:52:46;;;;;;;1.92;1.20;;;;;;;12.93;51.79;98319.25;5128037;28;20044;-75
2023/03/25 01:55:14;;;;;;;1.98;1.35;;;;;;;12.87;51.86;98327.75;5128832;28;20044;-75
2023/03/25 01:57:45;;;;;;;2.92;1.30;;;;;;;12.12;51.51;98439.91;5128232;28;20043;-75
2023/03/25 02:00:14;;;;;;;2.05;1.33;;;;;;;13.03;51.92;98384.03;5128231;28;20035;-75
2023/03/25 02:02:42;;;;;;;2.03;1.33;;;;;;;13.01;51.68;98385.97;5128456;28;20046;-75
2023/03/25 02:05:16;;;;;;;1.85;1.30;;;;;;;12.82;51.89;98361.84;5128145;28;20042;-75
2023/03/25 02:07:46;;;;;;;1.90;1.30;;;;;;;12.44;52.09;98311.72;5127427;28;20047;-75
2023/03/25 02:10:14;;;;;;;1.92;1.30;;;;;;;12.91;52.27;98406.31;5128019;28;20093;-75
2023/03/25 02:12:44;;;;;;;2.28;1.55;;;;;;;12.88;51.98;98398.56;5127165;28;20294;-75
2023/03/25 02:15:13;;;;;;;2.47;1.38;;;;;;;12.70;52.15;98360.16;5127894;28;20228;-75
2023/03/25 02:17:51;;;;;;;2.45;1.52;;;;;;;12.84;52.30;98395.31;5127424;28;20047;-75
2023/03/25 02:20:48;;;;;;;2.28;1.40;;;;;;;12.83;52.46;98390.13;5128469;28;20047;-76
2023/03/25 02:23:46;;;;;;;2.25;1.40;;;;;;;12.77;52.58;98367.50;5119179;28;20043;-75
2023/03/25 02:26:48;;;;;;;2.35;1.58;;;;;;;12.83;52.32;98393.63;5128100;28;20371;-75
2023/03/25 02:29:29;;;;;;;2.10;1.40;;;;;;;12.47;52.90;98328.28;5127470;28;20323;-73
2023/03/25 02:32:14;;;;;;;2.80;1.63;;;;;;;12.79;52.82;98391.31;5128170;28;20050;-75
2023/03/25 02:34:59;;;;;;;2.30;1.80;;;;;;;12.64;52.82;98358.81;5126877;28;20249;-73
2023/03/25 02:37:57;;;;;;;3.47;1.58;;;;;;;12.78;52.83;98371.03;5126465;28;20043;-74
2023/03/25 02:40:32;;;;;;;2.35;1.40;;;;;;;12.72;52.98;98350.25;5126628;28;20044;-75
2023/03/25 02:43:04;;;;;;;2.28;1.40;;;;;;;12.71;53.18;98351.22;5127529;28;20050;-75
2023/03/25 02:45:34;;;;;;;2.88;2.05;;;;;;;12.71;53.04;98365.34;5127424;28;20183;-75
2023/03/25 02:48:05;;;;;;;2.60;1.55;;;;;;;12.43;53.22;98310.88;5127383;28;20048;-75
2023/03/25 02:50:37;;;;;;;3.10;1.50;;;;;;;12.69;53.27;98361.13;5127323;28;20062;-75
2023/03/25 02:53:09;;;;;;;2.40;1.55;;;;;;;12.69;53.01;98358.47;5126478;28;20040;-75
2023/03/25 02:55:40;;;;;;;2.97;1.70;;;;;;;12.69;53.25;98369.09;5127173;28;20035;-75
2023/03/25 02:58:11;;;;;;;2.33;1.48;;;;;;;12.66;53.23;98380.81;5126259;28;20264;-75
2023/03/25 03:00:39;;;;;;;2.40;1.63;;;;;;;12.65;53.33;98365.84;5126254;28;20051;-75
2023/03/25 03:03:08;;;;;;;2.28;1.95;;;;;;;12.64;53.17;98353.50;5126292;28;20207;-75
2023/03/25 03:05:37;;;;;;;3.17;1.52;;;;;;;12.64;53.47;98356.16;5126260;28;20042;-74
2023/03/25 03:08:17;;;;;;;2.80;1.48;;;;;;;12.64;53.44;98347.34;5127192;28;20102;-75
2023/03/25 03:10:52;;;;;;;2.58;1.80;;;;;;;12.61;53.85;98355.56;5127422;28;20056;-76
2023/03/25 03:13:33;;;;;;;2.45;1.73;;;;;;;12.59;53.72;98365.47;5126997;28;20043;-75
2023/03/25 03:16:10;;;;;;;2.60;1.50;;;;;;;12.58;53.65;98372.59;5127047;28;20045;-75
2023/03/25 03:18:44;;;;;;;2.25;1.60;;;;;;;12.35;53.95;98345.19;5126741;28;20044;-75
2023/03/25 03:21:16;;;;;;;2.40;1.70;;;;;;;12.01;53.92;98295.63;5092232;28;20077;-75
2023/03/25 03:23:55;;;;;;;2.55;1.63;;;;;;;12.56;54.12;98381.66;5126091;28;20032;-75
2023/03/25 03:26:30;;;;;;;2.20;1.55;;;;;;;12.54;54.10;98380.94;5125856;28;20039;-75
2023/03/25 03:29:04;;;;;;;2.72;1.88;;;;;;;12.48;54.19;98385.75;5126608;28;20314;-75
2023/03/25 03:31:40;;;;;;;3.35;2.08;;;;;;;12.45;54.17;98382.50;5126513;28;20047;-75
2023/03/25 03:34:13;;;;;;;3.38;1.70;;;;;;;12.47;54.28;98392.03;5126315;28;20051;-75
2023/03/25 03:36:45;;;;;;;2.83;2.00;;;;;;;12.45;53.86;98391.31;5126721;28;20046;-74
2023/03/25 03:39:19;;;;;;;2.85;1.95;;;;;;;12.47;54.29;98396.50;5125803;28;20035;-75
2023/03/25 03:41:52;;;;;;;4.00;1.77;;;;;;;12.46;54.27;98400.13;5109625;28;20040;-75
2023/03/25 03:44:22;;;;;;;3.75;2.00;;;;;;;12.41;54.13;98387.22;5125778;28;20051;-74
2023/03/25 03:46:54;;;;;;;2.42;1.67;;;;;;;12.45;54.14;98399.28;5126559;28;20043;-74
2023/03/25 03:49:26;;;;;;;2.53;1.75;;;;;;;12.46;54.17;98408.97;5126761;28;20044;-74
2023/03/25 03:51:58;;;;;;;2.67;1.75;;;;;;;7.16;53.96;97543.22;5126429;28;20292;-75
2023/03/25 03:54:28;;;;;;;2.50;1.70;;;;;;;12.45;54.13;98409.91;5124986;28;20054;-75
2023/03/25 03:57:00;;;;;;;2.67;1.80;;;;;;;12.18;54.27;98380.19;5126034;28;20036;-73
2023/03/25 03:59:35;;;;;;;2.90;1.88;;;;;;;12.39;54.34;98418.38;5126539;28;20054;-74
2023/03/25 04:02:08;;;;;;;2.60;1.90;;;;;;;12.38;54.15;98406.06;5126457;28;20045;-74
2023/03/25 04:04:37;;;;;;;3.05;2.03;;;;;;;12.40;54.10;98411.25;5125697;28;20053;-74
2023/03/25 04:07:13;;;;;;;3.20;2.10;;;;;;;11.59;54.19;98276.69;5108929;28;20097;-74
2023/03/25 04:09:55;;;;;;;2.97;2.08;;;;;;;12.14;54.26;98381.34;5125267;28;20110;-74
2023/03/25 04:12:27;;;;;;;3.72;2.20;;;;;;;12.27;54.69;98405.19;5125576;28;20127;-74
2023/03/25 04:14:55;;;;;;;2.53;1.80;;;;;;;11.87;54.48;98347.09;5126564;28;20043;-75
2023/03/25 04:17:22;;;;;;;2.85;1.98;;;;;;;12.21;54.47;98405.66;5126482;28;20345;-74
2023/03/25 04:19:52;;;;;;;2.80;2.30;;;;;;;11.58;54.86;98312.16;5126266;28;20291;-74
2023/03/25 04:22:20;;;;;;;2.25;1.65;;;;;;;12.21;54.75;98411.81;5125958;28;20110;-75
2023/03/25 04:24:48;;;;;;;3.03;2.15;;;;;;;12.20;54.49;98412.78;5125921;28;20036;-74
2023/03/25 04:27:16;;;;;;;2.95;2.10;;;;;;;12.21;54.52;98417.13;5126286;28;20335;-75
2023/03/25 04:29:44;;;;;;;3.88;2.10;;;;;;;12.21;54.49;98418.94;5127045;28;20049;-75
2023/03/25 04:32:12;;;;;;;2.83;2.10;;;;;;;12.21;54.59;98425.09;5129108;28;20043;-74
2023/03/25 04:34:39;;;;;;;3.13;2.10;;;;;;;12.21;54.78;98425.09;5129867;28;20055;-75
2023/03/25 04:37:08;;;;;;;3.03;2.20;;;;;;;12.19;54.50;98422.56;5095397;28;20032;-75
2023/03/25 04:39:35;;;;;;;3.80;2.58;;;;;;;12.20;54.44;98420.75;5129854;28;20043;-74
2023/03/25 04:42:02;;;;;;;2.65;2.20;;;;;;;12.21;54.47;98422.44;5129718;28;20044;-74
2023/03/25 04:44:32;;;;;;;2.95;2.47;;;;;;;12.19;54.65;98422.56;5129230;28;20080;-74
2023/03/25 04:47:02;;;;;;;3.33;2.00;;;;;;;12.16;54.99;98429.88;5130080;28;20036;-75
2023/03/25 04:49:29;;;;;;;3.08;2.10;;;;;;;12.15;54.89;98425.53;5130199;27;20229;-75
2023/03/25 04:51:56;;;;;;;2.70;1.83;;;;;;;12.11;54.75;98429.38;5130111;28;20051;-75
2023/03/25 04:54:24;;;;;;;3.05;2.10;;;;;;;11.93;55.06;98397.06;5111907;28;20043;-74
2023/03/25 04:56:52;;;;;;;4.78;2.30;;;;;;;12.07;55.15;98441.22;5129447;27;20028;-75
2023/03/25 04:59:22;;;;;;;2.58;2.05;;;;;;;11.42;54.94;98349.59;5129731;28;20039;-75
2023/03/25 05:01:49;;;;;;;3.17;2.03;;;;;;;12.01;54.85;98454.94;5129465;28;20035;-75
2023/03/25 05:04:19;;;;;;;2.67;2.10;;;;;;;12.03;55.15;98458.34;5129332;28;20043;-75
2023/03/25 05:06:48;;;;;;;3.25;2.00;;;;;;;11.62;54.94;98389.72;5128772;28;20035;-75
2023/03/25 05:09:17;;;;;;;3.75;2.47;;;;;;;11.76;55.20;98424.88;5129012;28;20058;-74
2023/03/25 05:11:45;;;;;;;4.30;2.25;;;;;;;11.99;55.21;98467.47;5129515;28;20244;-75
2023/03/25 05:14:14;;;;;;;3.65;2.30;;;;;;;11.98;54.91;98476.38;5129211;28;20044;-74
2023/03/25 05:16:41;;;;;;;3.42;2.10;;;;;;;11.96;54.92;98468.53;5128157;28;20055;-75
2023/03/25 05:19:08;;;;;;;4.25;1.90;;;;;;;11.91;55.20;98465.38;5128271;28;20063;-75
2023/03/25 05:21:39;;;;;;;3.03;2.05;;;;;;;10.88;55.15;98312.94;5129482;28;20043;-75
2023/03/25 05:24:09;;;;;;;4.45;2.30;;;;;;;11.72;54.80;98443.81;5129097;28;20039;-74
2023/03/25 05:26:36;;;;;;;4.90;2.20;;;;;;;11.51;54.97;98417.06;5128927;28;20067;-75
2023/03/25 05:29:04;;;;;;;3.40;2.10;;;;;;;11.35;54.83;98380.19;5129178;28;20046;-74
2023/03/25 05:31:31;;;;;;;2.67;1.92;;;;;;;11.83;54.88;98459.78;5128904;28;20039;-75
2023/03/25 05:33:58;;;;;;;3.45;2.10;;;;;;;11.62;54.88;98421.56;5129074;28;20062;-74
2023/03/25 05:36:25;;;;;;;3.08;1.98;;;;;;;11.83;55.00;98460.63;5129344;28;20036;-75
2023/03/25 05:38:55;;;;;;;4.30;2.22;;;;;;;11.83;54.78;98449.16;5128681;28;20250;-75
2023/03/25 05:41:31;;;;;;;2.90;1.85;;;;;;;11.27;54.72;98374.59;5127574;28;20100;-74
2023/03/25 05:43:59;;;;;;;2.65;2.00;;;;;;;11.80;54.53;98446.75;5127856;28;20122;-74
2023/03/25 05:46:27;;;;;;;2.80;1.70;;;;;;;11.11;54.87;98335.09;5129276;28;20035;-75
2023/03/25 05:48:54;;;;;;;3.35;1.98;;;;;;;11.80;54.73;98457.38;5128201;28;20031;-75
2023/03/25 05:51:22;;;;;;;3.78;2.00;;;;;;;11.14;54.60;98365.84;5128771;28;20035;-74
2023/03/25 05:53:49;;;;;;;2.92;1.85;;;;;;;11.78;54.56;98465.44;5128439;28;20044;-74
2023/03/25 05:56:18;;;;;;;3.00;1.95;;;;;;;11.78;54.51;98469.91;5128693;28;20046;-74
2023/03/25 05:58:45;;;;;;;3.30;2.15;;;;;;;11.63;54.62;98437.38;5127495;28;20047;-74
2023/03/25 06:01:14;;;;;;;2.88;1.70;;;;;;;11.68;54.32;98451.16;5127579;28;20295;-75
2023/03/25 06:03:41;;;;;;;2.90;1.90;;;;;;;11.84;54.34;98485.38;5128870;28;20051;-75
2023/03/25 06:06:12;;;;;;;3.83;2.35;;;;;;;11.16;54.07;98355.97;5127613;28;20295;-75
2023/03/25 06:08:40;;;;;;;4.40;2.50;;;;;;;11.92;53.86;98479.50;5128917;28;20040;-75
2023/03/25 06:11:08;;;;;;;3.20;1.98;;;;;;;11.96;53.72;98481.81;5127238;28;20088;-75
2023/03/25 06:13:37;;;;;;;4.10;2.00;;;;;;;11.94;53.95;98499.66;5127442;28;20039;-74
2023/03/25 06:16:05;;;;;;;3.22;2.10;;;;;;;11.94;53.90;98504.97;5128632;27;20061;-75
2023/03/25 06:18:32;;;;;;;3.22;1.70;;;;;;;11.92;53.55;98492.78;5128141;28;20045;-75
2023/03/25 06:20:59;;;;;;;3.30;1.80;;;;;;;11.55;53.92;98437.09;5128671;28;20102;-74
2023/03/25 06:23:26;;;;;;;4.25;2.10;;;;;;;11.89;53.89;98515.09;5127997;28;20054;-74
2023/03/25 06:25:54;;;;;;;2.90;1.90;;;;;;;11.88;54.07;98518.72;5127333;28;20059;-74
2023/03/25 06:28:22;;;;;;;2.92;1.90;;;;;;;11.54;53.90;98460.13;5127443;28;20127;-75
2023/03/25 06:30:50;;;;;;;3.67;1.73;;;;;;;11.89;53.75;98510.63;5127900;28;20123;-74
2023/03/25 06:33:18;;;;;;;3.30;1.85;;;;;;;11.91;53.93;98514.97;5127486;28;20059;-75
2023/03/25 06:35:52;;;;;;;3.42;1.95;;;;;;;11.88;54.00;98516.06;5127136;28;20253;-74
2023/03/25 06:38:20;;;;;;;3.60;1.73;;;;;;;11.86;53.89;98518.81;5127174;28;20241;-75
2023/03/25 06:40:47;;;;;;;2.78;1.73;;;;;;;11.06;53.90;98392.94;5127699;28;20040;-75
2023/03/25 06:43:14;;;;;;;2.17;1.48;;;;;;;11.70;53.91;98489.06;5126760;28;20132;-74
2023/03/25 06:45:42;;;;;;;6.05;2.08;;;;;;;11.42;53.63;98438.97;5126750;28;20074;-74
2023/03/25 06:48:10;;;;;;;3.33;1.90;;;;;;;11.89;53.49;98507.97;5126713;28;20044;-74
2023/03/25 06:50:37;;;;;;;3.55;1.85;;;;;;;11.89;53.39;98507.13;5127792;28;20049;-75
2023/03/25 06:53:04;;;;;;;2.60;1.70;;;;;;;11.86;53.15;98507.34;5127135;28;20364;-75
2023/03/25 06:55:30;;;;;;;3.22;1.75;;;;;;;11.86;53.25;98510.00;5127503;28;20035;-75
2023/03/25 06:57:57;;;;;;;3.80;1.90;;;;;;;11.89;53.21;98492.03;5127544;28;20031;-74
2023/03/25 07:00:25;;;;;;;3.08;1.80;;;;;;;11.92;53.20;98485.66;5127407;28;20039;-74
2023/03/25 07:02:52;;;;;;;4.97;1.85;;;;;;;11.72;53.05;98449.97;5126296;28;20043;-75
2023/03/25 07:05:21;;;;;;;2.95;1.75;;;;;;;10.81;52.90;98298.44;5127188;28;20039;-75
2023/03/25 07:07:48;;;;;;;3.28;1.38;;;;;;;11.93;52.83;98521.03;5127089;28;20047;-74
2023/03/25 07:10:15;;;;;;;2.88;1.67;;;;;;;11.90;52.93;98474.31;5127293;28;20027;-75
2023/03/25 07:12:42;;;;;;;3.00;2.00;;;;;;;11.89;52.93;98470.81;5126205;28;20195;-74
2023/03/25 07:15:09;;;;;;;4.57;1.50;;;;;;;11.89;52.76;98470.81;5126448;28;20291;-74
2023/03/25 07:17:37;;;;;;;2.50;1.63;;;;;;;11.88;52.73;98479.72;5126011;28;20300;-75
2023/03/25 07:20:06;;;;;;;2.97;1.70;;;;;;;11.39;52.71;98417.97;5125931;28;20191;-74
2023/03/25 07:22:34;;;;;;;2.42;1.75;;;;;;;11.59;52.51;98440.38;5127071;28;20036;-75
2023/03/25 07:25:01;;;;;;;3.05;1.55;;;;;;;10.97;52.29;98340.56;5126704;28;20077;-75
2023/03/25 07:27:28;;;;;;;5.18;1.90;;;;;;;5.73;52.07;97750.00;5127216;28;20061;-74
2023/03/25 07:29:55;;;;;;;4.47;1.88;;;;;;;11.86;52.21;98481.66;5126958;28;20173;-75
2023/03/25 07:32:22;;;;;;;2.72;1.70;;;;;;;11.61;52.06;98441.94;5125796;28;20349;-74
2023/03/25 07:34:49;;;;;;;2.65;1.60;;;;;;;11.39;51.91;98378.16;5125422;28;20051;-75
2023/03/25 07:37:16;;;;;;;3.88;2.00;;;;;;;9.88;51.92;98146.22;5125607;28;20046;-75
2023/03/25 07:39:44;;;;;;;3.45;1.77;;;;;;;11.94;51.42;98472.25;5125851;28;20036;-75
2023/03/25 07:42:12;;;;;;;2.78;1.75;;;;;;;11.94;51.34;98466.97;5126409;28;20036;-75
2023/03/25 07:44:39;;;;;;;4.72;2.33;;;;;;;11.93;51.37;98452.84;5126339;28;20036;-74
2023/03/25 07:47:05;;;;;;;2.80;1.90;;;;;;;11.95;51.13;98453.56;5126897;28;20035;-74
2023/03/25 07:49:32;;;;;;;3.20;1.85;;;;;;;11.98;50.76;98441.88;5126504;28;20084;-75
2023/03/25 07:51:59;;;;;;;4.10;1.88;;;;;;;11.83;50.74;98428.78;5126476;28;20039;-75
2023/03/25 07:54:27;;;;;;;3.40;1.58;;;;;;;11.86;50.86;98441.81;5108375;28;20039;-75
2023/03/25 07:56:56;;;;;;;2.95;1.70;;;;;;;12.08;50.29;98445.56;5125311;28;20040;-75
2023/03/25 07:59:23;;;;;;;3.25;1.70;;;;;;;12.10;50.38;98457.75;5126159;28;20066;-75
2023/03/25 08:01:50;;;;;;;2.83;1.63;;;;;;;12.13;50.35;98440.75;5125891;28;20254;-75
2023/03/25 08:04:17;;;;;;;3.78;1.67;;;;;;;12.15;49.74;98433.50;5125322;28;20111;-74
2023/03/25 08:06:44;;;;;;;3.05;1.95;;;;;;;11.50;50.31;98322.50;5125100;28;20063;-74
2023/03/25 08:09:11;;;;;;;3.35;1.83;;;;;;;12.16;50.15;98420.13;5126291;28;20045;-74
2023/03/25 08:11:38;;;;;;;3.92;2.30;;;;;;;12.01;49.96;98417.75;5125869;28;20047;-75
2023/03/25 08:14:08;;;;;;;2.72;1.70;;;;;;;12.19;49.57;98445.63;5125082;28;20036;-75
2023/03/25 08:16:35;;;;;;;3.00;1.88;;;;;;;12.22;49.65;98445.38;5126090;28;20047;-74
2023/03/25 08:19:01;;;;;;;2.53;1.80;;;;;;;12.22;49.72;98439.22;5124891;28;20050;-74
2023/03/25 08:21:28;;;;;;;2.67;1.73;;;;;;;12.22;49.61;98429.44;5125233;28;20043;-74
2023/03/25 08:24:01;;;;;;;3.00;2.10;;;;;;;12.07;49.86;98420.81;5125928;28;20032;-74
2023/03/25 08:26:29;;;;;;;3.55;1.70;;;;;;;11.66;49.65;98352.22;5124922;28;20063;-74
2023/03/25 08:28:58;;;;;;;3.95;1.70;;;;;;;12.28;49.68;98458.19;5125052;28;20032;-74
2023/03/25 08:31:33;;;;;;;3.72;1.88;;;;;;;11.88;48.81;98415.16;5125929;28;20111;-75
2023/03/25 08:34:01;;;;;;;3.85;1.75;;;;;;;10.58;49.46;98220.56;5126011;28;20246;-75
2023/03/25 08:36:28;;;;;;;3.47;1.80;;;;;;;11.71;48.99;98383.72;5125431;28;20044;-75
2023/03/25 08:38:55;;;;;;;3.47;2.17;;;;;;;12.24;48.81;98470.03;5125924;28;20322;-74
2023/03/25 08:41:21;;;;;;;4.65;1.60;;;;;;;12.22;48.23;98479.91;5125815;28;20059;-74
2023/03/25 08:43:49;;;;;;;3.72;1.90;;;;;;;12.24;48.60;98485.13;5124731;28;20050;-74
2023/03/25 08:46:16;;;;;;;4.03;1.50;;;;;;;12.24;48.79;98471.84;5124714;28;20047;-74
2023/03/25 08:48:45;;;;;;;4.40;2.28;;;;;;;11.30;48.62;98294.81;5124993;28;20226;-75
2023/03/25 08:51:13;;;;;;;2.50;1.50;;;;;;;12.29;48.38;98461.69;5125844;28;20057;-74
2023/03/25 08:53:39;;;;;;;2.90;1.60;;;;;;;12.14;48.84;98435.31;5125105;28;20036;-74
2023/03/25 08:56:07;;;;;;;3.60;1.63;;;;;;;12.31;48.69;98468.59;5125608;28;20193;-74
2023/03/25 08:58:34;;;;;;;2.53;1.50;;;;;;;12.34;48.65;98486.97;5125296;28;20063;-74
2023/03/25 09:01:01;;;;;;;3.10;1.63;;;;;;;12.33;48.77;98489.72;5125305;28;20289;-75
2023/03/25 09:03:28;;;;;;;3.97;1.80;;;;;;;12.32;48.57;98496.84;5125787;28;20039;-74
2023/03/25 09:05:56;;;;;;;2.42;1.65;;;;;;;12.29;48.48;98481.16;5124666;28;20047;-74
2023/03/25 09:08:24;;;;;;;4.38;1.92;;;;;;;11.62;48.71;98389.72;5125475;28;20043;-74
2023/03/25 09:10:51;;;;;;;4.05;1.50;;;;;;;12.11;48.55;98454.13;5107762;28;20040;-74
2023/03/25 09:13:17;;;;;;;2.45;1.48;;;;;;;11.76;48.78;98378.91;5125680;28;20124;-74
2023/03/25 09:15:45;;;;;;;6.10;1.60;;;;;;;12.43;48.67;98491.56;5125964;28;20061;-74
2023/03/25 09:18:12;;;;;;;4.63;1.90;;;;;;;12.48;48.46;98496.53;5128913;28;20058;-74
2023/03/25 09:20:40;;;;;;;3.17;1.80;;;;;;;12.51;48.45;98483.84;5129109;28;20276;-73
2023/03/25 09:23:10;;;;;;;2.35;1.63;;;;;;;12.55;47.70;98475.66;5129449;28;20044;-74
2023/03/25 09:25:38;;;;;;;5.13;2.05;;;;;;;12.54;48.00;98477.47;5128147;28;20123;-74
2023/03/25 09:28:05;;;;;;;2.70;1.67;;;;;;;12.33;47.75;98433.94;5129059;28;20035;-74
2023/03/25 09:30:32;;;;;;;3.13;1.48;;;;;;;12.57;48.02;98471.91;5128234;28;20049;-75
2023/03/25 09:32:59;;;;;;;2.72;1.63;;;;;;;12.39;47.63;98449.41;5128217;28;20036;-74
2023/03/25 09:35:27;;;;;;;3.42;1.75;;;;;;;12.60;47.73;98474.31;5128787;28;20277;-75
2023/03/25 09:37:53;;;;;;;4.75;1.85;;;;;;;12.28;47.84;98414.84;5129201;28;20039;-74
2023/03/25 09:40:22;;;;;;;4.80;1.52;;;;;;;12.65;47.52;98474.81;5128871;28;20071;-75
2023/03/25 09:43:00;;;;;;;4.72;2.08;;;;;;;12.68;46.50;98489.69;5129028;28;20103;-75
2023/03/25 09:45:34;;;;;;;2.80;1.90;;;;;;;12.69;46.92;98478.09;5128914;28;20040;-75
2023/03/25 09:48:05;;;;;;;3.50;1.80;;;;;;;12.72;47.61;98492.00;5129246;28;20055;-75
2023/03/25 09:50:35;;;;;;;3.95;1.92;;;;;;;12.73;46.94;98485.72;5128725;28;20039;-75
2023/03/25 09:53:06;;;;;;;3.22;1.80;;;;;;;12.71;46.47;98497.44;5128776;28;20039;-74
2023/03/25 09:55:40;;;;;;;3.08;1.50;;;;;;;12.71;46.57;98473.50;5128311;28;20043;-74
2023/03/25 09:58:25;;;;;;;4.20;1.85;;;;;;;12.68;44.96;98513.63;5129032;28;20032;-74
2023/03/25 10:00:56;;;;;;;3.95;1.80;;;;;;;12.00;46.37;98382.41;5128418;28;20176;-75
2023/03/25 10:03:28;;;;;;;4.05;1.73;;;;;;;12.70;46.58;98477.13;5127856;28;20199;-75
2023/03/25 10:06:17;;;;;;;5.43;2.05;;;;;;;12.24;45.69;98390.31;5110949;28;20100;-74
2023/03/25 10:09:01;;;;;;;2.75;1.63;;;;;;;12.29;45.75;98380.19;5125478;28;20315;-74
2023/03/25 10:11:36;;;;;;;4.30;2.17;;;;;;;12.86;45.69;98469.66;5128689;28;20054;-75
2023/03/25 10:14:10;;;;;;;4.22;2.15;;;;;;;12.91;46.51;98462.16;5128329;28;20035;-75
2023/03/25 10:16:47;;;;;;;4.18;2.30;;;;;;;12.39;45.96;98372.34;5127213;28;20050;-74
2023/03/25 10:19:34;;;;;;;5.88;2.42;;;;;;;12.98;45.51;98466.00;5128072;28;20082;-75
2023/03/25 10:22:05;;;;;;;3.50;1.67;;;;;;;12.99;45.94;98475.69;5128212;27;20189;-75
2023/03/25 10:24:39;;;;;;;3.83;1.60;;;;;;;13.02;45.51;98463.97;5127809;28;20039;-74
2023/03/25 10:27:15;;;;;;;3.97;1.58;;;;;;;13.04;44.96;98452.22;5126781;28;20036;-74
2023/03/25 10:29:47;;;;;;;3.30;1.50;;;;;;;12.98;45.79;98441.22;5127352;28;20384;-74
2023/03/25 10:32:17;;;;;;;3.40;2.10;;;;;;;13.12;45.50;98451.63;5127824;28;20039;-75
2023/03/25 10:34:49;;;;;;;3.53;1.60;;;;;;;12.27;45.21;98341.44;5127497;28;20319;-75
2023/03/25 10:37:23;;;;;;;3.55;1.70;;;;;;;12.41;45.17;98347.34;5109479;28;20050;-74
2023/03/25 10:39:50;;;;;;;4.10;2.20;;;;;;;13.16;45.59;98456.56;5127637;28;20035;-74
2023/03/25 10:42:26;;;;;;;3.55;1.85;;;;;;;13.13;43.44;98475.44;5109703;28;20054;-74
2023/03/25 10:44:54;;;;;;;2.63;1.50;;;;;;;13.11;44.26;98489.84;5127590;28;20055;-74
2023/03/25 10:47:27;;;;;;;8.38;1.73;;;;;;;13.12;44.24;98518.13;5126425;28;20043;-74
2023/03/25 10:49:55;;;;;;;4.20;1.70;;;;;;;13.11;44.73;98492.50;5126607;28;20057;-75
2023/03/25 10:52:22;;;;;;;3.33;1.70;;;;;;;13.06;44.47;98514.13;5127337;28;20035;-74
2023/03/25 10:54:53;;;;;;;2.78;1.52;;;;;;;13.03;44.08;98501.06;5126487;28;20043;-74
2023/03/25 10:57:25;;;;;;;3.85;1.67;;;;;;;13.04;43.71;98510.75;5126296;28;20063;-74
2023/03/25 11:00:00;;;;;;;3.20;1.50;;;;;;;13.05;43.45;98493.81;5108672;28;20047;-74
2023/03/25 11:02:28;;;;;;;;;;;;;;;12.98;42.42;98500.59;5127839;27;20035;-74
2023/03/25 11:04:58;;;;;;;3.50;1.50;;;;;;;13.00;44.76;98501.31;5127682;28;20183;-74
2023/03/25 11:07:30;;;;;;;2.60;1.30;;;;;;;12.63;44.03;98467.94;5126667;28;20031;-74
2023/03/25 11:10:15;;;;;;;2.75;1.42;;;;;;;12.66;42.61;98449.09;5127233;28;20040;-74
2023/03/25 11:12:47;;;;;;;7.00;2.03;;;;;;;12.66;43.28;98471.19;5126986;28;20089;-74
2023/03/25 11:15:15;;;;;;;3.50;1.33;;;;;;;12.99;43.71;98507.59;5127431;28;20106;-74
2023/03/25 11:17:44;;;;;;;4.60;1.88;;;;;;;13.03;43.71;98525.03;5127157;28;20036;-74
2023/03/25 11:20:20;;;;;;;3.88;1.55;;;;;;;11.23;42.40;98243.19;5125964;28;20054;-74
2023/03/25 11:22:51;;;;;;;3.60;1.55;;;;;;;13.10;43.47;98512.09;5126841;28;20039;-75
2023/03/25 11:25:23;;;;;;;2.97;1.48;;;;;;;13.12;43.29;98497.69;5126989;28;20103;-75
2023/03/25 11:27:55;;;;;;;2.85;1.55;;;;;;;13.15;42.70;98496.59;5126723;28;20053;-75
2023/03/25 11:30:23;;;;;;;3.00;1.55;;;;;;;13.20;42.91;98505.06;5125952;28;20176;-75
2023/03/25 11:32:58;;;;;;;2.42;1.40;;;;;;;13.24;41.75;98505.66;5126609;28;20058;-75
2023/03/25 11:35:27;;;;;;;3.07;1.60;;;;;;;13.03;42.70;98455.84;5126536;28;20122;-75
2023/03/25 11:37:57;;;;;;;2.90;1.40;;;;;;;13.31;42.58;98491.75;5126593;28;20429;-75
2023/03/25 11:40:25;;;;;;;3.65;1.83;;;;;;;13.24;42.48;98455.13;5125843;28;20169;-75
2023/03/25 11:42:57;;;;;;;2.95;1.90;;;;;;;13.45;41.86;98498.66;5125545;28;20039;-75
2023/03/25 11:45:26;;;;;;;3.75;1.83;;;;;;;13.51;42.40;98474.22;5125092;28;20051;-75
2023/03/25 11:47:58;;;;;;;2.63;1.83;;;;;;;12.91;41.68;98368.22;5126184;28;20031;-75